Time;durP1;ratioP1;P1;durP2;ratioP2;P2;SDS_P1;SDS_P2;PMS_P1;PMS_P2;Temp;Humidity;BMP_temperature;BMP_pressure;BME280_temperature;BME280_humidity;BME280_pressure;Samples;Min_cycle;Max_cycle;Signal;HPM_P1;HPM_P2
2022/03/20 00:01:11;;;;;;;10.20;5.90;;;4.80;99.90;;;;;;5072481;28;20052;-71
2022/03/20 00:03:38;;;;;;;10.23;5.18;;;4.70;99.90;;;;;;5075270;28;20091;-70
2022/03/20 00:06:05;;;;;;;8.07;5.45;;;4.70;99.90;;;;;;5076241;28;20122;-71
2022/03/20 00:08:32;;;;;;;9.00;5.40;;;4.70;99.90;;;;;;5075925;28;20102;-72
2022/03/20 00:11:01;;;;;;;11.27;5.47;;;4.70;99.90;;;;;;5076283;28;20072;-71
2022/03/20 00:13:31;;;;;;;7.00;4.45;;;4.70;99.90;;;;;;5075743;28;20075;-71
2022/03/20 00:15:59;;;;;;;10.20;4.85;;;4.70;99.90;;;;;;5074358;28;20494;-72
2022/03/20 00:18:26;;;;;;;8.88;5.20;;;4.70;99.90;;;;;;5076300;28;20055;-72
2022/03/20 00:20:55;;;;;;;9.00;5.15;;;4.70;99.90;;;;;;5075702;28;20127;-72
2022/03/20 00:23:23;;;;;;;8.75;5.10;;;4.60;99.90;;;;;;5075474;28;20055;-72
2022/03/20 00:25:51;;;;;;;8.10;4.85;;;4.60;99.90;;;;;;5074567;28;20049;-73
2022/03/20 00:28:20;;;;;;;10.52;5.65;;;4.60;99.90;;;;;;5074673;28;20101;-72
2022/03/20 00:30:49;;;;;;;9.10;5.40;;;4.60;99.90;;;;;;5075135;28;20556;-71
2022/03/20 00:33:16;;;;;;;11.35;5.50;;;4.60;99.90;;;;;;5074426;28;20079;-69
2022/03/20 00:35:43;;;;;;;11.05;6.07;;;4.50;99.90;;;;;;5074492;28;20080;-69
2022/03/20 00:38:10;;;;;;;7.63;5.50;;;4.50;99.90;;;;;;5074090;28;20088;-69
2022/03/20 00:40:37;;;;;;;12.43;5.65;;;4.50;99.90;;;;;;5075585;28;20458;-70
2022/03/20 00:43:05;;;;;;;10.75;5.20;;;4.50;99.90;;;;;;5075381;28;20044;-69
2022/03/20 00:45:32;;;;;;;7.63;5.40;;;4.40;99.90;;;;;;5073788;28;20232;-69
2022/03/20 00:48:00;;;;;;;10.23;6.00;;;4.50;99.90;;;;;;5075485;28;20053;-69
2022/03/20 00:50:28;;;;;;;12.70;5.75;;;4.40;99.90;;;;;;5074845;28;20125;-70
2022/03/20 00:52:55;;;;;;;11.52;5.80;;;4.40;99.90;;;;;;5074060;28;20098;-69
2022/03/20 00:55:22;;;;;;;9.27;5.38;;;4.40;99.90;;;;;;5074197;28;20084;-69
2022/03/20 00:57:49;;;;;;;7.43;4.95;;;4.30;99.90;;;;;;5074420;28;20488;-68
2022/03/20 01:00:17;;;;;;;12.52;5.90;;;4.30;99.90;;;;;;5074212;28;20088;-69
2022/03/20 01:02:45;;;;;;;8.82;5.15;;;4.30;99.90;;;;;;5074245;28;20048;-69
2022/03/20 01:05:14;;;;;;;12.23;5.75;;;4.30;99.90;;;;;;5073203;28;20048;-69
2022/03/20 01:07:42;;;;;;;9.85;5.95;;;4.30;99.90;;;;;;5075088;28;20464;-69
2022/03/20 01:10:10;;;;;;;13.52;6.30;;;4.30;99.90;;;;;;5075010;28;20127;-69
2022/03/20 01:12:39;;;;;;;8.35;5.22;;;4.30;99.90;;;;;;5074091;28;20052;-69
2022/03/20 01:15:10;;;;;;;10.60;5.38;;;4.30;99.90;;;;;;5075166;28;20048;-69
2022/03/20 01:17:37;;;;;;;12.73;6.03;;;4.20;99.90;;;;;;5074853;28;20084;-69
2022/03/20 01:20:08;;;;;;;10.15;5.82;;;4.20;99.90;;;;;;5073142;28;20048;-69
2022/03/20 01:22:37;;;;;;;7.97;5.82;;;4.20;99.90;;;;;;5070205;28;20110;-68
2022/03/20 01:25:06;;;;;;;7.50;5.00;;;4.10;99.90;;;;;;5056608;28;20095;-68
2022/03/20 01:27:33;;;;;;;11.40;5.80;;;4.10;99.90;;;;;;5074066;28;20053;-68
2022/03/20 01:30:00;;;;;;;12.43;5.70;;;4.10;99.90;;;;;;5074730;28;20044;-68
2022/03/20 01:32:28;;;;;;;11.93;6.13;;;4.10;99.90;;;;;;5056308;28;20106;-68
2022/03/20 01:34:55;;;;;;;12.77;6.10;;;4.00;99.90;;;;;;5074661;28;20052;-68
2022/03/20 01:37:22;;;;;;;14.00;6.43;;;4.00;99.90;;;;;;5086054;28;20542;-68
2022/03/20 01:39:52;;;;;;;9.25;5.93;;;4.00;99.90;;;;;;5076280;28;20097;-69
2022/03/20 01:42:19;;;;;;;9.27;5.97;;;3.90;99.90;;;;;;5094601;28;20048;-68
2022/03/20 01:44:46;;;;;;;8.68;5.60;;;3.90;99.90;;;;;;5076670;28;20051;-69
2022/03/20 01:47:13;;;;;;;8.90;6.00;;;3.90;99.90;;;;;;5075696;28;20087;-69
2022/03/20 01:49:40;;;;;;;14.50;6.75;;;3.80;99.90;;;;;;5094854;28;20079;-69
2022/03/20 01:52:14;;;;;;;9.05;5.45;;;3.80;99.90;;;;;;5093172;28;20143;-69
2022/03/20 01:54:44;;;;;;;9.73;5.93;;;3.80;99.90;;;;;;5076106;28;20058;-69
2022/03/20 01:57:16;;;;;;;10.63;6.20;;;3.80;99.90;;;;;;5094190;28;20040;-69
2022/03/20 01:59:43;;;;;;;11.45;6.75;;;3.70;99.90;;;;;;5094746;28;20507;-68
2022/03/20 02:02:10;;;;;;;12.77;6.35;;;3.70;99.90;;;;;;5093767;28;20460;-68
2022/03/20 02:04:38;;;;;;;15.50;6.32;;;3.70;99.90;;;;;;5094180;28;20489;-68
2022/03/20 02:07:07;;;;;;;11.30;6.03;;;3.60;99.90;;;;;;5075216;28;20126;-68
2022/03/20 02:09:36;;;;;;;11.93;5.93;;;3.60;99.90;;;;;;5093150;28;20051;-68
2022/03/20 02:12:04;;;;;;;9.77;6.53;;;3.60;99.90;;;;;;5093296;28;20492;-67
2022/03/20 02:14:34;;;;;;;15.48;6.75;;;3.60;99.90;;;;;;5093076;28;20546;-69
2022/03/20 02:17:01;;;;;;;11.70;6.90;;;3.60;99.90;;;;;;5094030;28;20441;-68
2022/03/20 02:19:29;;;;;;;11.77;6.55;;;3.60;99.90;;;;;;5075587;28;20373;-69
2022/03/20 02:21:57;;;;;;;11.52;6.50;;;3.60;99.90;;;;;;5092824;28;20105;-69
2022/03/20 02:24:38;;;;;;;16.23;7.78;;;3.60;99.90;;;;;;5092336;28;20043;-69
2022/03/20 02:27:09;;;;;;;;;;;3.60;99.90;;;;;;5093495;28;20048;-68
2022/03/20 02:29:36;;;;;;;10.75;6.95;;;3.50;99.90;;;;;;5074713;28;20003;-68
2022/03/20 02:32:05;;;;;;;14.25;7.03;;;3.50;99.90;;;;;;5075324;28;20044;-69
2022/03/20 02:34:32;;;;;;;13.77;8.15;;;3.50;99.90;;;;;;5075272;28;20051;-69
2022/03/20 02:37:01;;;;;;;13.57;7.50;;;3.50;99.90;;;;;;5074303;28;20044;-69
2022/03/20 02:39:29;;;;;;;12.23;7.75;;;3.40;99.90;;;;;;5074497;28;20048;-69
2022/03/20 02:41:57;;;;;;;15.23;8.55;;;3.40;99.90;;;;;;5093033;28;20044;-69
2022/03/20 02:45:00;;;;;;;13.13;8.55;;;3.30;99.90;;;;;;5091356;28;20055;-68
2022/03/20 02:47:30;;;;;;;14.50;8.07;;;3.30;99.90;;;;;;5087792;28;20480;-68
2022/03/20 02:49:58;;;;;;;13.40;8.02;;;3.30;99.90;;;;;;5092264;28;20102;-69
2022/03/20 02:52:29;;;;;;;12.25;8.25;;;3.30;99.90;;;;;;5074820;28;20084;-68
2022/03/20 02:54:57;;;;;;;13.73;8.68;;;3.30;99.90;;;;;;5075044;28;20059;-68
2022/03/20 02:57:23;;;;;;;14.57;8.35;;;3.30;99.90;;;;;;5077358;28;20495;-68
2022/03/20 02:59:50;;;;;;;16.67;7.82;;;3.30;99.90;;;;;;5054808;28;20147;-69
2022/03/20 03:02:17;;;;;;;17.55;9.73;;;3.30;99.90;;;;;;5072227;28;20458;-68
2022/03/20 03:04:44;;;;;;;12.95;7.95;;;3.20;99.90;;;;;;5053750;28;20496;-68
2022/03/20 03:07:11;;;;;;;13.55;8.60;;;3.20;99.90;;;;;;5054442;28;20044;-69
2022/03/20 03:12:23;;;;;;;20.17;9.02;;;3.30;99.90;;;;;;5087816;28;20051;-69
2022/03/20 03:17:34;;;;;;;17.40;9.88;;;3.30;99.90;;;;;;5092705;28;20123;-69
2022/03/20 03:20:02;;;;;;;13.68;8.85;;;3.30;99.90;;;;;;5073988;28;20113;-69
2022/03/20 03:22:29;;;;;;;16.10;9.38;;;3.30;99.90;;;;;;5092629;28;20052;-69
2022/03/20 03:24:57;;;;;;;17.00;8.95;;;3.30;99.90;;;;;;5073811;28;20109;-69
2022/03/20 03:27:24;;;;;;;14.45;9.20;;;3.30;99.90;;;;;;5070598;28;20048;-69
2022/03/20 03:29:51;;;;;;;15.65;9.60;;;3.20;99.90;;;;;;5086169;28;20063;-69
2022/03/20 03:32:18;;;;;;;16.35;10.25;;;3.20;99.90;;;;;;5074057;28;20500;-68
2022/03/20 03:37:32;;;;;;;16.20;9.38;;;3.20;99.90;;;;;;5095382;28;20047;-69
2022/03/20 03:40:00;;;;;;;14.18;9.65;;;3.10;99.90;;;;;;5077777;28;20051;-69
2022/03/20 03:42:27;;;;;;;16.85;9.65;;;3.20;99.90;;;;;;5078535;28;20410;-68
2022/03/20 03:44:54;;;;;;;17.20;10.40;;;3.20;99.90;;;;;;5096217;28;20173;-68
2022/03/20 03:47:21;;;;;;;17.23;9.90;;;3.10;99.90;;;;;;5077518;28;20053;-68
2022/03/20 03:49:48;;;;;;;20.23;10.35;;;3.10;99.90;;;;;;5078136;28;20080;-68
2022/03/20 03:52:15;;;;;;;13.38;9.38;;;3.00;99.90;;;;;;5078361;28;20051;-68
2022/03/20 03:54:42;;;;;;;18.15;9.98;;;3.00;99.90;;;;;;5077306;28;20094;-68
2022/03/20 03:57:10;;;;;;;19.17;9.93;;;3.00;99.90;;;;;;5077639;28;20054;-68
2022/03/20 03:59:37;;;;;;;17.00;10.02;;;3.00;99.90;;;;;;5078079;28;20117;-69
2022/03/20 04:02:04;;;;;;;19.60;10.75;;;3.10;99.90;;;;;;5095450;28;20460;-69
2022/03/20 04:04:31;;;;;;;17.50;9.95;;;3.00;99.90;;;;;;5078006;28;20056;-68
2022/03/20 04:06:59;;;;;;;20.15;9.73;;;2.90;99.90;;;;;;5095878;28;20561;-68
2022/03/20 04:09:26;;;;;;;19.45;9.90;;;3.00;99.90;;;;;;5077429;28;20495;-69
2022/03/20 04:11:53;;;;;;;15.60;10.02;;;2.90;99.90;;;;;;5074445;28;20048;-68
2022/03/20 04:14:21;;;;;;;14.70;9.50;;;2.90;99.90;;;;;;5056731;28;20098;-68
2022/03/20 04:16:48;;;;;;;16.13;10.50;;;2.80;99.90;;;;;;5075740;28;20051;-68
2022/03/20 04:19:15;;;;;;;18.52;10.95;;;2.80;99.90;;;;;;5075521;28;20045;-68
2022/03/20 04:21:42;;;;;;;18.15;10.68;;;2.80;99.90;;;;;;5057172;28;20052;-68
2022/03/20 04:24:09;;;;;;;16.98;10.55;;;2.80;99.90;;;;;;5075543;28;20458;-68
2022/03/20 04:26:35;;;;;;;16.48;10.90;;;2.80;99.90;;;;;;5069317;28;20052;-68
2022/03/20 04:29:02;;;;;;;19.20;11.00;;;2.70;99.90;;;;;;5073490;28;20056;-68
2022/03/20 04:31:30;;;;;;;19.73;10.70;;;2.70;99.90;;;;;;5073796;28;20048;-69
2022/03/20 04:33:57;;;;;;;19.10;10.30;;;2.70;99.90;;;;;;5073360;28;20075;-69
2022/03/20 04:36:25;;;;;;;17.20;10.60;;;2.70;99.90;;;;;;5074351;28;20094;-69
2022/03/20 04:38:54;;;;;;;19.33;11.13;;;2.70;99.90;;;;;;5074842;28;20554;-68
2022/03/20 04:41:22;;;;;;;16.73;11.10;;;2.70;99.90;;;;;;5074176;28;20443;-69
2022/03/20 04:43:50;;;;;;;18.23;11.43;;;2.60;99.90;;;;;;5074631;28;20152;-68
2022/03/20 04:46:18;;;;;;;28.30;12.18;;;2.60;99.90;;;;;;5074688;28;20080;-68
2022/03/20 04:59:43;;;;;;;19.83;11.60;;;2.50;99.90;;;;;;5054862;28;20048;-68
2022/03/20 05:02:10;;;;;;;21.25;11.60;;;2.50;99.90;;;;;;5053784;28;20415;-68
2022/03/20 05:04:38;;;;;;;17.52;10.27;;;2.50;99.90;;;;;;5053019;28;20061;-68
2022/03/20 05:07:05;;;;;;;17.15;11.63;;;2.50;99.90;;;;;;5054496;28;20061;-69
2022/03/20 05:15:06;;;;;;;20.88;11.93;;;2.50;99.90;;;;;;5074703;28;20052;-69
2022/03/20 05:17:33;;;;;;;20.70;12.13;;;2.40;99.90;;;;;;5073997;28;20044;-69
2022/03/20 05:20:02;;;;;;;15.45;11.20;;;2.40;99.90;;;;;;5074523;28;20400;-70
2022/03/20 05:22:30;;;;;;;19.08;12.02;;;2.40;99.90;;;;;;5073164;28;20052;-69
2022/03/20 05:24:57;;;;;;;17.90;12.18;;;2.40;99.90;;;;;;5077081;28;20056;-68
2022/03/20 05:27:24;;;;;;;20.50;11.43;;;2.40;99.90;;;;;;5076308;28;20044;-68
2022/03/20 05:29:51;;;;;;;19.08;11.10;;;2.40;99.90;;;;;;5076463;28;20090;-69
2022/03/20 05:32:18;;;;;;;20.80;12.07;;;2.40;99.90;;;;;;5075902;28;20048;-69
2022/03/20 05:34:45;;;;;;;21.98;12.82;;;2.40;99.90;;;;;;5075918;28;20060;-69
2022/03/20 05:37:13;;;;;;;19.15;11.48;;;2.30;99.90;;;;;;5094487;28;20044;-69
2022/03/20 05:39:40;;;;;;;18.45;12.05;;;2.30;99.90;;;;;;5075134;28;20047;-69
2022/03/20 05:42:07;;;;;;;18.13;12.38;;;2.30;99.90;;;;;;5094287;28;20055;-69
2022/03/20 05:44:35;;;;;;;20.40;12.52;;;2.30;99.90;;;;;;5076378;28;20584;-69
2022/03/20 05:47:02;;;;;;;23.13;12.00;;;2.40;99.90;;;;;;5075387;28;20043;-69
2022/03/20 05:49:29;;;;;;;19.77;11.80;;;2.30;99.90;;;;;;5075825;28;20055;-69
2022/03/20 05:51:57;;;;;;;22.73;13.20;;;2.30;99.90;;;;;;5076149;28;20525;-69
2022/03/20 05:54:25;;;;;;;19.85;12.60;;;2.40;99.90;;;;;;5074859;28;20048;-69
2022/03/20 05:59:37;;;;;;;21.27;12.63;;;2.30;99.90;;;;;;5074683;28;20040;-68
2022/03/20 06:02:06;;;;;;;19.95;12.85;;;2.40;99.90;;;;;;5075759;28;20101;-68
2022/03/20 06:04:33;;;;;;;23.13;13.52;;;2.40;99.90;;;;;;5094033;28;20052;-68
2022/03/20 06:07:00;;;;;;;20.00;12.73;;;2.40;99.90;;;;;;5075158;28;20094;-68
2022/03/20 06:09:28;;;;;;;18.25;12.18;;;2.40;99.90;;;;;;5075016;28;20097;-68
2022/03/20 06:11:56;;;;;;;19.13;13.25;;;2.50;99.90;;;;;;5093735;28;20079;-68
2022/03/20 06:14:23;;;;;;;22.60;13.50;;;2.50;99.90;;;;;;5093089;28;20411;-68
2022/03/20 06:16:50;;;;;;;25.30;13.20;;;2.50;99.90;;;;;;5075772;28;20384;-68
2022/03/20 06:19:17;;;;;;;19.67;13.55;;;2.50;99.90;;;;;;5093445;28;20491;-68
2022/03/20 06:21:46;;;;;;;19.38;12.48;;;2.60;99.90;;;;;;5092959;28;20087;-68
2022/03/20 06:24:12;;;;;;;20.55;12.55;;;2.60;99.90;;;;;;5075000;28;20058;-68
2022/03/20 06:26:41;;;;;;;19.23;12.82;;;2.60;99.90;;;;;;5075075;28;20399;-68
2022/03/20 06:29:08;;;;;;;19.60;12.82;;;2.60;99.90;;;;;;5093020;28;20052;-69
2022/03/20 06:31:36;;;;;;;21.80;12.93;;;2.70;99.90;;;;;;5093518;28;20048;-69
2022/03/20 06:34:03;;;;;;;20.35;12.77;;;2.70;99.90;;;;;;5075261;28;20079;-69
2022/03/20 06:36:30;;;;;;;22.52;13.88;;;2.80;99.90;;;;;;5092715;28;20075;-68
2022/03/20 06:38:57;;;;;;;20.08;13.05;;;2.80;99.90;;;;;;5074688;28;20054;-68
2022/03/20 06:41:24;;;;;;;19.15;10.90;;;2.90;99.90;;;;;;5072240;28;20083;-69
2022/03/20 06:43:52;;;;;;;20.95;13.35;;;3.30;99.90;;;;;;5075620;28;20044;-68
2022/03/20 06:46:19;;;;;;;20.88;13.10;;;3.10;99.90;;;;;;5064142;28;20124;-68
2022/03/20 06:48:47;;;;;;;21.40;12.88;;;3.10;99.90;;;;;;5083041;28;20322;-68
2022/03/20 06:51:17;;;;;;;21.13;13.00;;;3.20;99.90;;;;;;5070514;28;20117;-68
2022/03/20 06:53:44;;;;;;;24.45;12.88;;;3.30;99.90;;;;;;5088412;28;20040;-68
2022/03/20 06:56:11;;;;;;;19.65;13.57;;;3.40;99.90;;;;;;5085253;28;20036;-67
2022/03/20 06:58:37;;;;;;;21.30;14.07;;;3.80;99.90;;;;;;5066996;28;20052;-68
2022/03/20 07:01:06;;;;;;;20.55;12.57;;;4.10;99.90;;;;;;5089299;28;20052;-69
2022/03/20 07:03:33;;;;;;;19.00;12.63;;;4.20;99.90;;;;;;5063947;28;20055;-69
2022/03/20 07:06:00;;;;;;;23.05;12.82;;;4.30;99.90;;;;;;5064355;28;20123;-69
2022/03/20 07:08:28;;;;;;;27.95;14.95;;;4.40;99.90;;;;;;5083971;28;20048;-69
2022/03/20 07:10:55;;;;;;;21.02;13.07;;;4.40;99.90;;;;;;5068992;28;20059;-69
2022/03/20 07:16:07;;;;;;;18.02;12.80;;;4.80;99.90;;;;;;5067753;28;20044;-69
2022/03/20 07:18:37;;;;;;;22.63;12.95;;;5.30;99.90;;;;;;5085419;28;20048;-70
2022/03/20 07:21:03;;;;;;;19.80;13.43;;;5.70;99.90;;;;;;5063319;28;20048;-70
2022/03/20 07:23:31;;;;;;;24.13;13.80;;;6.10;99.90;;;;;;5069144;28;20052;-70
2022/03/20 07:31:28;;;;;;;19.58;12.43;;;7.00;99.90;;;;;;5082518;28;20054;-69
2022/03/20 07:33:55;;;;;;;18.35;12.68;;;7.20;99.90;;;;;;5065605;28;20080;-70
2022/03/20 07:36:22;;;;;;;20.73;14.05;;;7.40;99.90;;;;;;5084922;28;20084;-70
2022/03/20 07:38:50;;;;;;;21.48;13.70;;;7.50;99.90;;;;;;5083137;28;20040;-70
2022/03/20 07:41:17;;;;;;;20.30;12.98;;;7.60;99.90;;;;;;5085781;28;20052;-70
2022/03/20 07:43:43;;;;;;;21.45;13.95;;;7.40;99.90;;;;;;5086382;28;20091;-70
2022/03/20 07:46:11;;;;;;;25.10;13.13;;;7.90;99.90;;;;;;5065953;28;20083;-70
2022/03/20 07:48:39;;;;;;;19.27;12.63;;;8.20;99.90;;;;;;5086401;28;20502;-70
2022/03/20 07:51:06;;;;;;;19.85;13.90;;;8.40;99.90;;;;;;5083370;28;20256;-71
2022/03/20 07:53:33;;;;;;;20.77;13.52;;;8.50;99.40;;;;;;5064361;28;20072;-70
2022/03/20 07:56:00;;;;;;;19.17;13.57;;;8.80;99.40;;;;;;5071009;28;20048;-70
2022/03/20 07:58:26;;;;;;;22.15;12.68;;;8.60;99.10;;;;;;5085599;28;20048;-70
2022/03/20 08:00:53;;;;;;;16.63;12.32;;;8.00;98.60;;;;;;5067372;28;20125;-69
2022/03/20 08:03:20;;;;;;;16.15;12.38;;;7.80;99.60;;;;;;5066281;28;20095;-69
2022/03/20 08:05:48;;;;;;;18.02;12.70;;;7.60;99.50;;;;;;5068976;28;20465;-71
2022/03/20 08:08:16;;;;;;;18.63;12.60;;;8.20;99.40;;;;;;5084490;28;20468;-69
2022/03/20 08:10:43;;;;;;;19.50;14.02;;;8.90;98.20;;;;;;5083491;28;20090;-69
2022/03/20 08:13:11;;;;;;;21.10;12.88;;;8.80;97.20;;;;;;5063497;28;20056;-70
2022/03/20 08:15:39;;;;;;;20.98;13.00;;;9.10;96.50;;;;;;5082972;28;20170;-70
2022/03/20 08:18:07;;;;;;;17.83;13.15;;;9.30;96.00;;;;;;5065278;28;20610;-70
2022/03/20 08:20:35;;;;;;;17.42;12.43;;;9.90;95.40;;;;;;5066391;28;20059;-70
2022/03/20 08:23:03;;;;;;;21.73;14.25;;;10.10;94.70;;;;;;5086995;28;20104;-69
2022/03/20 08:25:31;;;;;;;20.70;13.70;;;9.70;94.60;;;;;;5091780;28;20059;-69
2022/03/20 08:27:58;;;;;;;18.33;14.07;;;10.20;94.00;;;;;;5071007;28;20041;-70
2022/03/20 08:30:25;;;;;;;17.40;13.15;;;10.20;94.10;;;;;;5070745;28;20084;-70
2022/03/20 08:32:54;;;;;;;19.02;12.80;;;10.50;93.90;;;;;;5087985;28;20048;-70
2022/03/20 08:35:21;;;;;;;18.13;12.90;;;10.80;93.30;;;;;;5070498;28;20060;-70
2022/03/20 08:37:49;;;;;;;15.32;12.13;;;10.60;92.80;;;;;;5088773;28;20040;-70
2022/03/20 08:40:19;;;;;;;19.42;13.73;;;11.20;92.80;;;;;;5071275;28;20118;-70
2022/03/20 08:42:47;;;;;;;18.73;13.25;;;11.40;91.30;;;;;;5070562;28;20105;-70
2022/03/20 08:45:14;;;;;;;17.77;13.45;;;11.70;91.80;;;;;;5063836;28;20059;-70
2022/03/20 08:47:42;;;;;;;19.67;14.10;;;11.90;90.60;;;;;;5083364;28;20080;-70
2022/03/20 08:50:10;;;;;;;19.20;14.40;;;11.50;89.00;;;;;;5066779;28;20040;-70
2022/03/20 08:52:37;;;;;;;19.02;14.00;;;11.90;89.40;;;;;;5069028;28;20048;-69
2022/03/20 08:55:10;;;;;;;20.50;14.18;;;11.90;88.40;;;;;;5070044;28;20431;-71
2022/03/20 08:57:39;;;;;;;19.13;13.80;;;11.70;87.30;;;;;;5070769;28;20063;-70
2022/03/20 09:00:08;;;;;;;19.38;13.82;;;12.00;86.10;;;;;;5092106;28;20051;-70
2022/03/20 09:02:36;;;;;;;21.65;14.25;;;12.20;86.70;;;;;;5087256;28;20056;-70
2022/03/20 09:05:03;;;;;;;19.02;14.07;;;12.30;84.30;;;;;;5067499;28;20113;-70
2022/03/20 09:07:30;;;;;;;20.15;14.48;;;12.40;83.00;;;;;;5087544;28;20047;-70
2022/03/20 09:09:57;;;;;;;20.35;14.60;;;12.50;83.10;;;;;;5087215;28;20055;-71
2022/03/20 09:12:24;;;;;;;19.88;14.75;;;12.60;81.80;;;;;;5090206;28;20067;-70
2022/03/20 09:14:52;;;;;;;19.85;13.98;;;12.70;80.80;;;;;;5068721;28;20466;-70
2022/03/20 09:20:04;;;;;;;17.75;13.65;;;13.60;78.50;;;;;;5067707;28;20503;-70
2022/03/20 09:22:31;;;;;;;19.30;14.00;;;13.50;78.40;;;;;;5087524;28;20099;-71
2022/03/20 09:24:57;;;;;;;22.65;13.85;;;13.50;76.50;;;;;;5084777;28;20503;-71
2022/03/20 09:27:25;;;;;;;20.27;14.85;;;13.00;76.20;;;;;;5090033;28;20505;-70
2022/03/20 09:29:53;;;;;;;20.05;14.23;;;13.10;77.60;;;;;;5071327;28;20055;-70
2022/03/20 09:32:20;;;;;;;17.63;13.75;;;13.00;76.30;;;;;;5085807;28;20048;-70
2022/03/20 09:34:47;;;;;;;19.75;13.75;;;13.40;76.50;;;;;;5085496;28;20075;-71
2022/03/20 09:37:14;;;;;;;21.27;14.90;;;14.00;76.20;;;;;;5085918;28;20382;-70
2022/03/20 09:39:41;;;;;;;18.85;13.95;;;14.20;76.00;;;;;;5064350;28;20484;-70
2022/03/20 09:42:08;;;;;;;20.88;14.55;;;14.80;74.20;;;;;;5089042;28;20052;-70
2022/03/20 09:44:38;;;;;;;20.88;15.30;;;15.40;73.60;;;;;;5087916;28;20093;-71
2022/03/20 09:47:11;;;;;;;18.42;14.48;;;16.00;70.80;;;;;;5090784;28;20245;-71
2022/03/20 09:49:38;;;;;;;21.27;15.85;;;16.40;71.80;;;;;;5066855;28;20419;-71
2022/03/20 09:52:06;;;;;;;19.05;15.63;;;16.40;69.70;;;;;;5084070;28;20403;-71
2022/03/20 09:54:33;;;;;;;20.13;16.17;;;16.30;65.50;;;;;;5084284;28;20055;-72
2022/03/20 09:57:03;;;;;;;18.73;15.30;;;16.00;64.70;;;;;;5090464;28;20080;-71
2022/03/20 09:59:30;;;;;;;;;;;15.90;64.70;;;;;;5087641;28;20044;-71
2022/03/20 10:02:02;;;;;;;23.60;15.38;;;16.20;64.60;;;;;;5067877;28;21229;-73
2022/03/20 10:04:34;;;;;;;19.88;15.82;;;16.70;64.00;;;;;;5067742;28;20055;-72
2022/03/20 10:07:01;;;;;;;19.65;15.63;;;16.30;62.10;;;;;;5067838;28;20044;-71
2022/03/20 10:09:29;;;;;;;21.90;16.27;;;16.50;61.90;;;;;;5087162;28;20071;-72
2022/03/20 10:11:57;;;;;;;22.38;15.48;;;16.30;61.50;;;;;;5094014;28;20135;-70
2022/03/20 10:14:26;;;;;;;18.08;13.23;;;15.70;61.80;;;;;;5086104;28;20051;-71
2022/03/20 10:16:57;;;;;;;21.52;15.38;;;16.40;62.60;;;;;;5066432;28;20052;-69
2022/03/20 10:19:33;;;;;;;19.67;15.02;;;16.20;61.70;;;;;;5065706;28;20043;-69
2022/03/20 10:22:04;;;;;;;19.15;16.02;;;16.40;61.10;;;;;;5085567;28;20043;-70
2022/03/20 10:24:33;;;;;;;21.13;15.85;;;16.90;61.10;;;;;;5085599;28;20109;-69
2022/03/20 10:27:13;;;;;;;18.38;15.00;;;17.00;60.30;;;;;;5073067;28;20043;-70
2022/03/20 10:29:52;;;;;;;21.50;15.60;;;16.70;60.50;;;;;;5064803;28;20062;-71
2022/03/20 10:32:19;;;;;;;21.73;16.25;;;16.90;60.30;;;;;;5072457;28;20105;-70
2022/03/20 10:34:53;;;;;;;19.13;15.27;;;16.80;61.20;;;;;;5084953;28;20064;-70
2022/03/20 10:37:22;;;;;;;21.25;16.60;;;17.60;59.90;;;;;;5086057;28;20101;-71
2022/03/20 10:39:48;;;;;;;20.80;15.98;;;17.40;59.10;;;;;;5085373;28;20036;-71
2022/03/20 10:42:18;;;;;;;19.63;15.48;;;17.40;58.80;;;;;;5071316;28;20132;-71
2022/03/20 10:44:45;;;;;;;23.58;15.90;;;17.20;58.50;;;;;;5088085;28;20044;-70
2022/03/20 10:47:16;;;;;;;21.67;16.77;;;17.40;59.40;;;;;;5068395;28;20098;-70
2022/03/20 10:49:48;;;;;;;19.92;15.23;;;17.40;57.80;;;;;;5067014;28;20084;-70
2022/03/20 10:52:22;;;;;;;20.42;15.90;;;17.20;57.80;;;;;;5084208;28;20047;-70
2022/03/20 10:54:53;;;;;;;25.13;15.75;;;17.90;58.20;;;;;;5061058;28;20050;-70
2022/03/20 10:57:21;;;;;;;19.30;15.73;;;18.80;57.10;;;;;;5070465;28;20481;-71
2022/03/20 10:59:58;;;;;;;22.80;16.95;;;18.40;56.50;;;;;;5059312;28;20519;-71
2022/03/20 11:02:26;;;;;;;19.85;15.93;;;18.00;55.30;;;;;;5052936;28;20053;-70
2022/03/20 11:04:53;;;;;;;24.42;16.63;;;18.20;55.60;;;;;;5080371;28;20075;-70
2022/03/20 11:07:23;;;;;;;22.73;16.70;;;18.10;54.40;;;;;;5076133;28;20049;-71
2022/03/20 11:09:52;;;;;;;19.65;15.90;;;17.60;55.40;;;;;;5071150;28;20049;-71
2022/03/20 11:12:23;;;;;;;20.95;16.15;;;18.30;56.10;;;;;;5067083;28;20492;-71
2022/03/20 11:14:50;;;;;;;20.45;16.35;;;18.20;55.50;;;;;;5089472;28;20514;-71
2022/03/20 11:17:19;;;;;;;22.20;17.13;;;17.50;55.50;;;;;;5071486;28;20053;-71
2022/03/20 11:19:50;;;;;;;21.00;15.93;;;17.70;55.90;;;;;;5070579;28;20124;-71
2022/03/20 11:22:20;;;;;;;18.42;15.10;;;18.50;55.30;;;;;;5074206;28;20052;-72
2022/03/20 11:24:51;;;;;;;20.90;15.90;;;19.20;58.20;;;;;;5081922;28;20052;-72
2022/03/20 11:27:24;;;;;;;19.50;16.15;;;19.30;55.80;;;;;;5064220;28;20067;-72
2022/03/20 11:29:53;;;;;;;25.58;16.42;;;18.30;56.30;;;;;;5071998;28;20044;-72
2022/03/20 11:32:20;;;;;;;21.17;17.08;;;18.20;58.70;;;;;;5070889;28;20072;-71
2022/03/20 11:34:48;;;;;;;19.77;15.48;;;18.50;55.80;;;;;;5066501;28;20052;-71
2022/03/20 11:37:17;;;;;;;22.35;17.08;;;19.20;55.60;;;;;;5052829;28;20048;-71
2022/03/20 11:40:10;;;;;;;20.40;16.05;;;19.10;55.40;;;;;;5066989;28;20060;-71
2022/03/20 11:42:37;;;;;;;21.77;16.77;;;19.20;54.90;;;;;;5076423;28;20496;-71
2022/03/20 11:45:16;;;;;;;20.27;16.08;;;18.90;54.20;;;;;;5071471;28;20052;-71
2022/03/20 11:47:44;;;;;;;22.40;17.23;;;19.10;54.50;;;;;;5068489;28;20076;-71
2022/03/20 11:50:17;;;;;;;23.30;17.08;;;19.00;54.70;;;;;;5071367;28;20095;-71
2022/03/20 11:53:00;;;;;;;20.02;15.85;;;19.00;54.40;;;;;;5070435;28;20083;-71
2022/03/20 11:55:36;;;;;;;23.25;16.58;;;18.70;54.50;;;;;;5075738;28;20060;-71
2022/03/20 11:58:06;;;;;;;26.13;17.33;;;18.60;53.70;;;;;;5072488;28;20098;-72
2022/03/20 12:00:35;;;;;;;29.77;16.67;;;18.90;55.10;;;;;;5074979;28;20131;-71
2022/03/20 12:03:39;;;;;;;22.17;16.93;;;18.80;52.80;;;;;;5074851;28;20067;-72
2022/03/20 12:06:42;;;;;;;22.65;17.83;;;18.40;52.90;;;;;;5057595;28;20106;-71
2022/03/20 12:09:20;;;;;;;24.60;16.27;;;18.90;53.50;;;;;;5079393;28;20044;-71
2022/03/20 12:12:08;;;;;;;21.85;16.08;;;19.10;53.20;;;;;;5075587;28;20048;-72
2022/03/20 12:14:39;;;;;;;21.80;16.70;;;18.60;52.30;;;;;;5094231;28;20052;-71
2022/03/20 12:17:08;;;;;;;21.90;16.35;;;19.10;52.50;;;;;;5074675;28;20455;-71
2022/03/20 12:19:41;;;;;;;20.42;15.98;;;18.90;52.60;;;;;;5071173;28;20408;-71
2022/03/20 12:22:15;;;;;;;24.33;16.33;;;18.80;52.80;;;;;;5056324;28;20128;-71
2022/03/20 12:24:55;;;;;;;21.50;16.58;;;18.50;52.50;;;;;;5074228;28;20150;-70
2022/03/20 12:27:43;;;;;;;21.90;16.23;;;17.90;52.60;;;;;;5078761;28;20052;-74
2022/03/20 12:30:35;;;;;;;21.05;16.33;;;17.90;54.00;;;;;;5057071;28;20454;-73
2022/03/20 12:33:23;;;;;;;20.60;17.08;;;18.10;53.10;;;;;;5074665;28;20493;-70
2022/03/20 12:35:50;;;;;;;20.20;15.75;;;18.00;53.70;;;;;;5074783;28;20052;-74
2022/03/20 12:38:35;;;;;;;19.77;16.17;;;18.10;53.40;;;;;;5069754;28;20044;-72
2022/03/20 12:41:14;;;;;;;28.63;16.55;;;18.20;53.40;;;;;;5095514;28;20388;-71
2022/03/20 12:43:44;;;;;;;21.77;15.88;;;18.70;53.70;;;;;;5082168;28;20056;-71
2022/03/20 12:46:12;;;;;;;23.60;16.90;;;19.30;52.40;;;;;;5061387;28;20458;-72
2022/03/20 12:48:51;;;;;;;26.52;16.33;;;19.50;52.50;;;;;;5055620;28;20393;-73
2022/03/20 12:51:29;;;;;;;22.25;16.40;;;19.00;52.00;;;;;;5075471;28;20054;-71
2022/03/20 12:53:59;;;;;;;21.83;16.58;;;18.70;52.00;;;;;;5072237;28;20045;-72
2022/03/20 12:56:28;;;;;;;21.70;17.58;;;18.60;52.50;;;;;;5073424;28;20117;-71
2022/03/20 12:58:57;;;;;;;20.33;16.17;;;18.20;52.50;;;;;;5074181;28;20048;-72
2022/03/20 13:01:25;;;;;;;20.80;15.93;;;18.70;53.70;;;;;;5063466;28;20407;-71
2022/03/20 13:03:53;;;;;;;25.85;16.70;;;18.80;53.00;;;;;;5080092;28;20127;-71
2022/03/20 13:06:20;;;;;;;22.33;15.98;;;18.60;52.90;;;;;;5086846;28;20139;-71
2022/03/20 13:08:47;;;;;;;22.77;17.45;;;18.80;52.50;;;;;;5070514;28;20080;-71
2022/03/20 13:14:02;;;;;;;19.98;16.50;;;18.40;51.90;;;;;;5072465;28;20045;-69
2022/03/20 13:16:29;;;;;;;23.13;16.00;;;18.20;52.10;;;;;;5073305;28;20056;-69
2022/03/20 13:18:56;;;;;;;21.90;16.02;;;17.90;52.80;;;;;;5078371;28;20043;-64
2022/03/20 13:21:23;;;;;;;24.33;17.20;;;17.70;53.00;;;;;;5064111;28;20056;-65
2022/03/20 13:23:52;;;;;;;21.33;16.20;;;16.80;54.00;;;;;;5073358;28;20052;-65
2022/03/20 13:26:20;;;;;;;23.65;15.98;;;16.40;55.60;;;;;;5080223;28;20517;-64
2022/03/20 13:28:48;;;;;;;22.60;16.17;;;15.90;56.60;;;;;;5064243;28;20057;-64